createdAt,value
2022-10-08T00:02:12.560Z,86.50
2022-10-08T00:05:02.652Z,86.90
2022-10-08T00:07:51.969Z,87.70
2022-10-08T00:10:40.577Z,87.40
2022-10-08T00:13:40.785Z,88.50
2022-10-08T00:16:32.085Z,88.40
2022-10-08T00:19:20.955Z,89.70
2022-10-08T00:22:11.061Z,89.70
2022-10-08T00:24:59.686Z,89.70
2022-10-08T00:27:48.307Z,89.20
2022-10-08T00:30:39.261Z,89.40
2022-10-08T00:33:27.884Z,89.80
2022-10-08T00:36:16.514Z,90.50
2022-10-08T00:39:09.188Z,90.20
2022-10-08T00:41:57.986Z,90.20
2022-10-08T00:44:56.496Z,90.70
2022-10-08T00:47:47.758Z,90.40
2022-10-08T00:50:37.590Z,90.40
2022-10-08T00:53:26.251Z,90.20
2022-10-08T00:56:16.460Z,90.00
2022-10-08T00:59:06.057Z,89.40
2022-10-08T01:01:54.698Z,89.10
2022-10-08T01:04:45.370Z,89.00
2022-10-08T01:07:41.834Z,88.20
2022-10-08T01:10:40.149Z,87.70
2022-10-08T01:13:41.666Z,87.80
2022-10-08T01:16:41.258Z,87.90
2022-10-08T01:19:49.060Z,87.80
2022-10-08T01:22:53.900Z,87.40
2022-10-08T01:25:55.834Z,87.00
2022-10-08T01:28:50.981Z,87.30
2022-10-08T01:31:44.942Z,88.00
2022-10-08T01:34:37.780Z,88.10
2022-10-08T01:37:31.935Z,88.20
2022-10-08T01:40:25.528Z,88.10
2022-10-08T01:43:17.719Z,87.90
2022-10-08T01:46:13.689Z,87.30
2022-10-08T01:49:08.085Z,87.20
2022-10-08T01:52:01.291Z,87.20
2022-10-08T01:54:53.823Z,86.90
2022-10-08T01:57:45.265Z,86.60
2022-10-08T02:00:35.596Z,86.50
2022-10-08T02:03:25.691Z,86.50
2022-10-08T02:06:14.836Z,86.40
2022-10-08T02:09:03.708Z,86.40
2022-10-08T02:11:52.424Z,85.90
2022-10-08T02:14:44.724Z,85.50
2022-10-08T02:17:40.138Z,85.10
2022-10-08T02:20:36.676Z,84.70
2022-10-08T02:23:29.911Z,84.40
2022-10-08T02:26:23.435Z,84.70
2022-10-08T02:29:17.733Z,84.60
2022-10-08T02:32:11.382Z,84.80
2022-10-08T02:35:07.414Z,84.80
2022-10-08T02:38:01.321Z,84.90
2022-10-08T02:40:54.000Z,84.90
2022-10-08T02:43:48.221Z,85.10
2022-10-08T02:46:41.710Z,85.40
2022-10-08T02:49:35.962Z,86.10
2022-10-08T02:52:27.279Z,86.20
2022-10-08T02:55:25.059Z,85.80
2022-10-08T02:58:14.836Z,85.80
2022-10-08T03:01:11.082Z,86.30
2022-10-08T03:04:03.886Z,86.00
2022-10-08T03:06:54.202Z,85.70
2022-10-08T03:09:47.370Z,85.30
2022-10-08T03:12:37.665Z,85.10
2022-10-08T03:15:26.859Z,85.10
2022-10-08T03:18:16.540Z,85.10
2022-10-08T03:21:06.165Z,85.80
2022-10-08T03:23:54.799Z,85.40
2022-10-08T03:26:44.241Z,85.60
2022-10-08T03:29:34.280Z,85.90
2022-10-08T03:32:22.885Z,85.70
2022-10-08T03:35:11.551Z,86.20
2022-10-08T03:38:00.157Z,86.40
2022-10-08T03:40:56.076Z,87.10
2022-10-08T03:43:45.398Z,87.20
2022-10-08T03:46:35.480Z,88.10
2022-10-08T03:49:24.220Z,87.90
2022-10-08T03:52:12.834Z,88.40
2022-10-08T03:55:01.462Z,89.00
2022-10-08T03:57:50.097Z,89.00
2022-10-08T04:00:38.740Z,88.90
2022-10-08T04:03:31.040Z,89.60
2022-10-08T04:06:20.248Z,89.40
2022-10-08T04:09:10.198Z,88.80
2022-10-08T04:11:58.853Z,88.40
2022-10-08T04:14:47.480Z,88.30
2022-10-08T04:17:36.082Z,88.10
2022-10-08T04:20:26.123Z,88.20
2022-10-08T04:23:14.735Z,88.50
2022-10-08T04:26:03.580Z,88.80
2022-10-08T04:28:52.302Z,88.40
2022-10-08T04:31:41.397Z,88.00
2022-10-08T04:34:30.301Z,88.00
2022-10-08T04:37:20.400Z,87.70
2022-10-08T04:40:10.494Z,87.90
2022-10-08T04:42:59.088Z,87.90
2022-10-08T04:45:48.113Z,87.90
2022-10-08T04:48:37.253Z,88.00
2022-10-08T04:51:28.272Z,88.60
2022-10-08T04:54:18.289Z,88.80
2022-10-08T04:57:06.915Z,88.70
2022-10-08T05:00:17.567Z,88.00
2022-10-08T05:03:04.163Z,87.70
2022-10-08T05:05:52.849Z,88.30
2022-10-08T05:08:41.811Z,88.10
2022-10-08T05:11:32.734Z,88.40
2022-10-08T05:14:21.376Z,88.60
2022-10-08T05:17:09.961Z,89.20
2022-10-08T05:19:58.591Z,89.40
2022-10-08T05:22:47.804Z,89.30
2022-10-08T05:25:37.361Z,89.30
2022-10-08T05:28:27.421Z,90.00
2022-10-08T05:31:16.572Z,89.90
2022-10-08T05:34:05.695Z,90.30
2022-10-08T05:36:54.297Z,91.40
2022-10-08T05:39:42.924Z,91.60
2022-10-08T05:42:31.550Z,91.20
2022-10-08T05:45:21.615Z,91.10
2022-10-08T05:48:10.205Z,91.30
2022-10-08T05:51:04.286Z,91.10
2022-10-08T05:53:55.141Z,92.00
2022-10-08T05:56:44.529Z,91.90
2022-10-08T05:59:33.207Z,91.60
2022-10-08T06:02:23.376Z,92.20
2022-10-08T06:05:12.131Z,91.80
2022-10-08T06:08:00.736Z,92.50
2022-10-08T06:10:52.750Z,92.40
2022-10-08T06:13:41.357Z,93.00
2022-10-08T06:16:31.662Z,92.40
2022-10-08T06:19:21.929Z,91.50
2022-10-08T06:22:10.643Z,91.00
2022-10-08T06:24:59.272Z,91.40
2022-10-08T06:27:47.926Z,91.80
2022-10-08T06:30:36.688Z,82.70
2022-10-08T06:33:25.263Z,75.80
2022-10-08T06:36:18.758Z,69.30
2022-10-08T06:39:11.067Z,65.70
2022-10-08T06:41:59.767Z,49.70
2022-10-08T06:44:48.350Z,45.10
2022-10-08T06:47:36.978Z,45.70
2022-10-08T06:50:25.605Z,49.30
2022-10-08T06:53:15.630Z,51.40
2022-10-08T06:56:05.780Z,55.20
2022-10-08T06:58:54.994Z,57.70
2022-10-08T07:01:43.966Z,57.50
2022-10-08T07:04:32.761Z,57.40
2022-10-08T07:07:21.409Z,60.80
2022-10-08T07:10:11.977Z,62.70
2022-10-08T07:13:00.604Z,62.20
2022-10-08T07:15:49.497Z,57.30
2022-10-08T07:18:39.415Z,57.80
2022-10-08T07:21:29.078Z,58.90
2022-10-08T07:24:18.112Z,65.90
2022-10-08T07:27:08.204Z,69.20
2022-10-08T07:29:56.834Z,72.80
2022-10-08T07:32:45.701Z,75.50
2022-10-08T07:35:34.602Z,77.60
2022-10-08T07:38:23.214Z,77.90
2022-10-08T07:41:13.269Z,78.70
2022-10-08T07:44:04.429Z,80.50
2022-10-08T07:46:54.195Z,82.50
2022-10-08T07:49:42.805Z,82.30
2022-10-08T07:52:31.589Z,79.40
2022-10-08T07:55:20.212Z,78.20
2022-10-08T07:58:08.900Z,77.40
2022-10-08T08:00:59.338Z,78.40
2022-10-08T08:03:53.823Z,77.70
2022-10-08T08:06:44.157Z,77.20
2022-10-08T08:09:32.754Z,73.30
2022-10-08T08:12:21.362Z,73.50
2022-10-08T08:15:10.944Z,72.60
2022-10-08T08:18:00.984Z,68.70
2022-10-08T08:20:49.642Z,69.60
2022-10-08T08:23:40.255Z,71.70
2022-10-08T08:26:32.906Z,69.70
2022-10-08T08:29:21.635Z,69.40
2022-10-08T08:32:10.315Z,71.80
2022-10-08T08:35:00.465Z,71.80
2022-10-08T08:37:49.271Z,72.70
2022-10-08T08:40:37.849Z,74.10
2022-10-08T08:43:26.827Z,76.10
2022-10-08T08:46:20.218Z,74.10
2022-10-08T08:49:19.863Z,71.30
2022-10-08T08:52:11.460Z,74.40
2022-10-08T08:55:00.073Z,72.30
2022-10-08T08:57:56.306Z,69.80
2022-10-08T09:00:50.222Z,71.10
2022-10-08T09:03:43.731Z,70.40
2022-10-08T09:06:35.286Z,68.80
2022-10-08T09:09:32.310Z,66.30
2022-10-08T09:12:22.988Z,69.30
2022-10-08T09:15:18.599Z,72.10
2022-10-08T09:18:07.515Z,73.00
2022-10-08T09:20:56.097Z,71.20
2022-10-08T09:23:45.099Z,71.40
2022-10-08T09:26:36.614Z,74.30
2022-10-08T09:29:35.569Z,72.70
2022-10-08T09:32:24.259Z,71.60
2022-10-08T09:35:17.061Z,66.80
2022-10-08T09:38:06.323Z,66.80
2022-10-08T09:41:03.371Z,67.20
2022-10-08T09:44:12.432Z,66.10
2022-10-08T09:47:07.302Z,63.60
2022-10-08T09:50:05.005Z,58.70
2022-10-08T09:52:56.226Z,60.30
2022-10-08T09:55:53.390Z,58.40
2022-10-08T09:58:51.576Z,55.60
2022-10-08T10:01:48.618Z,57.10
2022-10-08T10:04:40.396Z,56.10
2022-10-08T10:07:40.217Z,54.80
2022-10-08T10:10:33.411Z,59.00
2022-10-08T10:13:29.469Z,60.30
2022-10-08T10:16:22.642Z,63.30
2022-10-08T10:19:19.602Z,67.10
2022-10-08T10:22:15.370Z,70.50
2022-10-08T10:25:10.168Z,75.10
2022-10-08T10:28:03.894Z,71.90
2022-10-08T10:30:58.067Z,76.80
2022-10-08T10:33:53.849Z,78.40
2022-10-08T10:36:49.153Z,76.80
2022-10-08T10:39:43.028Z,74.60
2022-10-08T10:42:36.638Z,74.50
2022-10-08T10:45:30.887Z,76.10
2022-10-08T10:48:19.526Z,73.70
2022-10-08T10:51:29.044Z,73.70
2022-10-08T10:54:44.434Z,70.70
2022-10-08T10:57:45.391Z,69.90
2022-10-08T11:00:44.208Z,66.50
2022-10-08T11:03:43.440Z,66.50
2022-10-08T11:07:02.870Z,69.40
2022-10-08T11:09:59.517Z,70.20
2022-10-08T11:12:57.889Z,70.30
2022-10-08T11:15:52.433Z,70.30
2022-10-08T11:18:48.711Z,71.50
2022-10-08T11:21:49.619Z,69.60
2022-10-08T11:25:16.983Z,69.80
2022-10-08T11:28:20.908Z,69.30
2022-10-08T11:31:17.917Z,70.00
2022-10-08T11:34:19.567Z,68.40
2022-10-08T11:37:16.209Z,61.10
2022-10-08T11:40:15.526Z,54.80
2022-10-08T11:43:08.451Z,57.60
2022-10-08T11:46:28.659Z,50.70
2022-10-08T11:49:49.018Z,54.10
2022-10-08T11:52:37.709Z,53.30
2022-10-08T11:55:28.717Z,58.70
2022-10-08T11:58:23.885Z,56.20
2022-10-08T12:01:12.674Z,59.40
2022-10-08T12:04:06.226Z,54.00
2022-10-08T12:07:05.871Z,51.20
2022-10-08T12:10:33.339Z,52.50
2022-10-08T12:13:31.347Z,48.80
2022-10-08T12:16:20.077Z,35.90
2022-10-08T12:19:50.769Z,29.30
2022-10-08T12:22:44.594Z,24.20
2022-10-08T12:25:37.250Z,26.20
2022-10-08T12:28:50.410Z,26.70
2022-10-08T12:31:42.711Z,21.30
2022-10-08T12:34:35.522Z,22.80
2022-10-08T12:37:46.004Z,25.20
2022-10-08T12:40:40.378Z,25.60
2022-10-08T12:43:37.870Z,22.80
2022-10-08T12:46:41.277Z,24.20
2022-10-08T12:49:37.873Z,30.20
2022-10-08T12:52:27.241Z,31.00
2022-10-08T12:55:18.693Z,30.20
2022-10-08T12:58:07.656Z,32.80
2022-10-08T13:00:59.624Z,32.60
2022-10-08T13:03:48.418Z,32.70
2022-10-08T13:06:38.507Z,33.30
2022-10-08T13:09:30.030Z,35.60
2022-10-08T13:12:18.615Z,36.40
2022-10-08T13:15:09.326Z,37.70
2022-10-08T13:17:58.378Z,34.20
2022-10-08T13:20:58.466Z,31.60
2022-10-08T13:23:48.546Z,29.00
2022-10-08T13:26:42.549Z,25.80
2022-10-08T13:29:34.210Z,27.00
2022-10-08T13:32:25.771Z,27.10
2022-10-08T13:35:23.511Z,21.30
2022-10-08T13:38:20.817Z,17.90
2022-10-08T13:41:11.211Z,15.50
2022-10-08T13:43:59.970Z,12.80
2022-10-08T13:46:48.680Z,11.80
2022-10-08T13:49:37.427Z,11.10
2022-10-08T13:52:26.386Z,10.70
2022-10-08T13:55:23.923Z,8.40
2022-10-08T13:58:16.124Z,6.90
2022-10-08T14:01:04.829Z,5.70
2022-10-08T14:03:53.495Z,6.70
2022-10-08T14:06:42.721Z,3.30
2022-10-08T14:09:31.731Z,2.50
2022-10-08T14:12:26.303Z,1.40
2022-10-08T14:15:20.673Z,2.60
2022-10-08T14:18:09.442Z,1.50
2022-10-08T14:20:58.156Z,2.50
2022-10-08T14:23:46.753Z,1.00
2022-10-08T14:26:35.616Z,1.40
2022-10-08T14:29:24.630Z,2.10
2022-10-08T14:32:14.672Z,4.20
2022-10-08T14:35:03.448Z,4.60
2022-10-08T14:37:52.064Z,5.40
2022-10-08T14:40:40.690Z,5.00
2022-10-08T14:43:29.283Z,4.30
2022-10-08T14:46:18.620Z,5.60
2022-10-08T14:49:08.668Z,5.70
2022-10-08T14:51:57.353Z,6.80
2022-10-08T14:54:45.980Z,5.80
2022-10-08T14:57:34.616Z,7.60
2022-10-08T15:00:23.237Z,9.80
2022-10-08T15:03:11.879Z,9.50
2022-10-08T15:06:02.403Z,6.60
2022-10-08T15:08:50.985Z,5.10
2022-10-08T15:11:39.639Z,5.70
2022-10-08T15:14:28.232Z,5.10
2022-10-08T15:17:17.588Z,2.60
2022-10-08T15:20:07.059Z,3.50
2022-10-08T15:22:57.085Z,4.40
2022-10-08T15:25:45.713Z,5.90
2022-10-08T15:28:37.538Z,7.00
2022-10-08T15:31:26.659Z,6.30
2022-10-08T15:34:18.414Z,3.40
2022-10-08T15:37:08.096Z,4.40
2022-10-08T15:39:58.128Z,4.70
2022-10-08T15:42:51.888Z,3.30
2022-10-08T15:45:43.059Z,3.30
2022-10-08T15:48:31.765Z,4.40
2022-10-08T15:51:20.604Z,4.20
2022-10-08T15:54:09.596Z,3.60
2022-10-08T15:56:59.615Z,3.10
2022-10-08T15:59:48.652Z,2.70
2022-10-08T16:02:37.325Z,3.50
2022-10-08T16:05:26.054Z,3.20
2022-10-08T16:08:14.638Z,2.70
2022-10-08T16:11:12.097Z,4.30
2022-10-08T16:14:03.789Z,3.10
2022-10-08T16:16:53.445Z,3.70
2022-10-08T16:19:42.094Z,4.00
2022-10-08T16:22:30.778Z,4.50
2022-10-08T16:25:19.388Z,5.10
2022-10-08T16:28:08.076Z,6.10
2022-10-08T16:30:59.876Z,6.80
2022-10-08T16:33:48.859Z,7.60
2022-10-08T16:36:38.370Z,7.70
2022-10-08T16:39:27.910Z,9.20
2022-10-08T16:42:16.974Z,8.50
2022-10-08T16:45:08.035Z,8.80
2022-10-08T16:47:59.400Z,9.00
2022-10-08T16:50:49.054Z,8.40
2022-10-08T16:53:37.914Z,9.10
2022-10-08T16:56:28.710Z,11.20
2022-10-08T16:59:19.329Z,13.70
2022-10-08T17:02:08.531Z,16.60
2022-10-08T17:04:58.558Z,19.80
2022-10-08T17:07:47.215Z,23.70
2022-10-08T17:10:35.865Z,25.40
2022-10-08T17:13:24.458Z,27.80
2022-10-08T17:16:13.836Z,31.60
2022-10-08T17:19:02.862Z,33.30
2022-10-08T17:21:52.959Z,36.40
2022-10-08T17:24:42.454Z,38.40
2022-10-08T17:27:31.181Z,40.80
2022-10-08T17:30:19.870Z,42.40
2022-10-08T17:33:08.468Z,43.90
2022-10-08T17:36:01.828Z,45.60
2022-10-08T17:38:54.182Z,47.20
2022-10-08T17:41:44.243Z,47.80
2022-10-08T17:44:32.837Z,48.40
2022-10-08T17:47:24.588Z,50.10
2022-10-08T17:50:15.690Z,51.50
2022-10-08T17:53:04.657Z,54.60
2022-10-08T17:56:00.418Z,56.60
2022-10-08T17:58:49.308Z,56.50
2022-10-08T18:01:41.415Z,57.60
2022-10-08T18:04:32.607Z,57.10
2022-10-08T18:07:21.250Z,56.10
2022-10-08T18:10:11.320Z,56.60
2022-10-08T18:13:02.259Z,57.00
2022-10-08T18:15:51.232Z,57.70
2022-10-08T18:18:40.070Z,58.20
2022-10-08T18:21:28.954Z,57.80
2022-10-08T18:24:18.491Z,55.00
2022-10-08T18:27:07.149Z,55.40
2022-10-08T18:29:57.170Z,56.00
2022-10-08T18:32:46.054Z,55.10
2022-10-08T18:35:35.077Z,55.60
2022-10-08T18:38:23.744Z,56.10
2022-10-08T18:41:18.252Z,56.10
2022-10-08T18:44:08.145Z,55.80
2022-10-08T18:47:03.064Z,55.70
2022-10-08T18:49:53.789Z,56.50
2022-10-08T18:52:42.460Z,55.50
2022-10-08T18:55:31.184Z,56.20
2022-10-08T18:58:19.764Z,56.60
2022-10-08T19:01:16.362Z,57.30
2022-10-08T19:04:08.226Z,58.30
2022-10-08T19:06:57.088Z,57.90
2022-10-08T19:09:45.713Z,57.40
2022-10-08T19:12:34.361Z,58.00
2022-10-08T19:15:22.967Z,58.00
2022-10-08T19:18:11.602Z,58.70
2022-10-08T19:21:08.184Z,58.90
2022-10-08T19:23:57.960Z,59.60
2022-10-08T19:26:47.977Z,57.80
2022-10-08T19:29:36.581Z,58.50
2022-10-08T19:32:25.273Z,59.80
2022-10-08T19:35:13.870Z,59.50
2022-10-08T19:38:04.278Z,60.70
2022-10-08T19:40:52.866Z,61.70
2022-10-08T19:43:44.072Z,61.20
2022-10-08T19:46:33.174Z,59.90
2022-10-08T19:49:22.514Z,59.50
2022-10-08T19:52:11.168Z,58.70
2022-10-08T19:55:01.118Z,59.00
2022-10-08T19:57:49.759Z,61.00
2022-10-08T20:00:38.372Z,61.30
2022-10-08T20:03:27.046Z,61.10
2022-10-08T20:06:24.121Z,61.00
2022-10-08T20:09:15.207Z,61.30
2022-10-08T20:12:05.348Z,61.90
2022-10-08T20:14:54.044Z,63.00
2022-10-08T20:17:42.628Z,63.30
2022-10-08T20:20:33.735Z,63.50
2022-10-08T20:23:22.499Z,63.80
2022-10-08T20:26:14.112Z,64.40
2022-10-08T20:29:06.089Z,64.80
2022-10-08T20:31:55.975Z,64.50
2022-10-08T20:34:44.557Z,64.70
2022-10-08T20:37:33.191Z,64.80
2022-10-08T20:40:21.804Z,64.10
2022-10-08T20:43:10.446Z,63.70
2022-10-08T20:46:02.377Z,64.20
2022-10-08T20:48:51.018Z,65.20
2022-10-08T20:51:40.910Z,62.20
2022-10-08T20:54:29.496Z,61.00
2022-10-08T20:57:18.120Z,58.20
2022-10-08T21:00:07.787Z,57.90
2022-10-08T21:02:57.815Z,59.80
2022-10-08T21:05:46.741Z,57.60
2022-10-08T21:08:38.081Z,58.70
2022-10-08T21:11:30.091Z,60.60
2022-10-08T21:14:21.553Z,62.20
2022-10-08T21:17:10.172Z,63.20
2022-10-08T21:20:00.160Z,62.90
2022-10-08T21:22:49.097Z,58.30
2022-10-08T21:25:37.987Z,57.20
2022-10-08T21:28:26.624Z,58.60
2022-10-08T21:31:16.225Z,60.50
2022-10-08T21:34:05.291Z,58.70
2022-10-08T21:36:55.511Z,59.70
2022-10-08T21:39:44.163Z,58.70
2022-10-08T21:42:32.921Z,58.80
2022-10-08T21:45:21.512Z,60.60
2022-10-08T21:48:10.143Z,60.40
2022-10-08T21:51:00.689Z,59.90
2022-10-08T21:53:53.110Z,61.30
2022-10-08T21:56:43.143Z,62.10
2022-10-08T21:59:31.929Z,63.10
2022-10-08T22:02:20.673Z,62.60
2022-10-08T22:05:09.955Z,63.00
2022-10-08T22:07:58.595Z,64.20
2022-10-08T22:10:48.705Z,64.60
2022-10-08T22:13:38.173Z,65.70
2022-10-08T22:16:26.824Z,65.80
2022-10-08T22:19:15.814Z,66.10
2022-10-08T22:22:04.752Z,66.90
2022-10-08T22:24:53.402Z,67.50
2022-10-08T22:27:43.421Z,68.20
2022-10-08T22:30:34.654Z,68.10
2022-10-08T22:33:23.592Z,68.80
2022-10-08T22:36:14.789Z,67.90
2022-10-08T22:39:03.413Z,68.70
2022-10-08T22:41:52.018Z,69.30
2022-10-08T22:44:42.054Z,70.30
2022-10-08T22:47:30.673Z,71.40
2022-10-08T22:50:20.084Z,71.00
2022-10-08T22:53:08.696Z,70.80
2022-10-08T22:55:57.419Z,71.30
2022-10-08T22:58:46.843Z,70.90
2022-10-08T23:01:36.883Z,71.40
2022-10-08T23:04:25.666Z,72.10
2022-10-08T23:07:14.260Z,73.10
2022-10-08T23:10:02.900Z,73.30
2022-10-08T23:12:52.833Z,72.70
2022-10-08T23:15:41.467Z,72.50
2022-10-08T23:18:33.852Z,73.10
2022-10-08T23:21:23.079Z,73.80
2022-10-08T23:24:11.695Z,74.00
2022-10-08T23:27:00.304Z,73.90
2022-10-08T23:29:48.940Z,74.00
2022-10-08T23:32:37.555Z,74.70
2022-10-08T23:35:27.585Z,75.00
2022-10-08T23:38:16.183Z,76.00
2022-10-08T23:41:07.186Z,74.50
2022-10-08T23:43:56.156Z,74.30
2022-10-08T23:46:44.804Z,73.80
2022-10-08T23:49:33.448Z,74.60
2022-10-08T23:52:23.437Z,75.40
2022-10-08T23:55:12.138Z,75.70
2022-10-08T23:58:00.785Z,75.80
